KRNT - Renton
Updated: Tue, 28-Jan-2020 9:53am PST

 Wind from SSW
Wind: SSW 3 mph , 6 km/h
Temperature: 45°F , 7°C
Dew Point: 43°F , 6°C
Humidity: 93%
Barometer: 29.95 inHg , 1014.2 hPa
Visibility: 10 miles , 16 km
Cloud details: 3800 ft
4600 ft
5500 ft
2020/01/28 17:53 KRNT 281753Z 21003KT 10SM FEW038 BKN046 OVC055 07/06 A2995 RMK AO2 RAE30 SLP146 P0001 60025 T00720061 10083 20072 51017 $
KBFI - Seattle-Boeing
Updated: Tue, 28-Jan-2020 9:53am PST

 Wind from SE
Wind: SE 5 mph , 7 km/h
Temperature: 48°F , 9°C
Wind Chill: 46°F , 8°C
Dew Point: 45°F , 7°C
Humidity: 87%
Barometer: 29.95 inHg , 1014.2 hPa
Visibility: 10 miles , 16 km
Cloud details: 1200 ft
2300 ft
3600 ft
2020/01/28 17:53 KBFI 281753Z 13004KT 10SM BKN012 BKN023 OVC036 09/07 A2995 RMK AO2 RAE19 SLP142 P0000 60022 T00890072 10089 20078 53022
 
KSEA - Seattle
Updated: Tue, 28-Jan-2020 9:53am PST

 Wind from varies
Wind: varies 3 mph , 6 km/h
Temperature: 48°F , 9°C
Dew Point: 45°F , 7°C
Humidity: 87%
Barometer: 29.94 inHg , 1013.9 hPa
Visibility: 10 miles , 16 km
Cloud details: 700 ft
2000 ft
3600 ft
2020/01/28 17:53 KSEA 281753Z VRB03KT 10SM FEW007 FEW020 OVC036 09/07 A2994 RMK AO2 RAE13 SLP146 P0001 60041 T00890067 10089 20078 53021
KSMP - Stampede Pass
Updated: Tue, 28-Jan-2020 9:50am PST
Fog, Overcast
Fog, Overcast
 Wind from varies
Wind: varies 3 mph , 6 km/h
Temperature: 32°F , 0°C
Dew Point: 30°F , -1°C
Humidity: 93%
Barometer: 29.89 inHg , 1012.2 hPa
Visibility: 1/2 mile , 0.8 km
Cloud details: 200 ft
900 ft
1600 ft
2020/01/28 17:50 KSMP 281750Z AUTO VRB03KT 1/2SM FG FEW002 SCT009 OVC016 00/M01 A2989 RMK AO2 SNE40 P0001 T00001011